Time;durP1;ratioP1;P1;durP2;ratioP2;P2;SDS_P1;SDS_P2;PMS_P1;PMS_P2;Temp;Humidity;BMP_temperature;BMP_pressure;BME280_temperature;BME280_humidity;BME280_pressure;Samples;Min_cycle;Max_cycle;Signal;HPM_P1;HPM_P2
2021/11/18 05:00:31;;;;;;;11.30;7.25;;;7.50;99.90;;;;;;6105980;23;20268;31
2021/11/18 05:02:58;;;;;;;18.05;7.80;;;7.60;99.90;;;;;;4970879;28;20209;-71
2021/11/18 05:05:26;;;;;;;11.93;7.38;;;7.60;99.90;;;;;;4973226;28;20594;-74
2021/11/18 05:07:53;;;;;;;22.10;8.55;;;7.60;99.90;;;;;;4974039;28;20204;-71
2021/11/18 05:10:21;;;;;;;16.17;7.75;;;7.60;99.90;;;;;;4972946;28;20216;-71
2021/11/18 05:12:48;;;;;;;12.05;7.82;;;7.70;99.90;;;;;;4972396;28;20661;-71
2021/11/18 05:15:17;;;;;;;13.55;7.32;;;7.70;99.90;;;;;;4973368;28;20236;-72
2021/11/18 05:17:46;;;;;;;9.57;7.22;;;7.70;99.90;;;;;;4972462;28;20283;-72
2021/11/18 05:20:14;;;;;;;18.90;8.02;;;7.60;99.90;;;;;;4971791;28;20283;-72
2021/11/18 05:22:41;;;;;;;18.35;8.82;;;7.70;99.90;;;;;;4971772;28;20200;-69
2021/11/18 05:25:09;;;;;;;20.45;7.78;;;7.70;99.90;;;;;;4973169;28;20208;-71
2021/11/18 05:27:36;;;;;;;17.15;9.32;;;7.70;99.90;;;;;;4972044;28;20236;-71
2021/11/18 05:30:03;;;;;;;16.92;9.75;;;7.70;99.90;;;;;;4972804;28;20201;-71
2021/11/18 05:32:30;;;;;;;18.13;8.57;;;7.70;99.90;;;;;;4971672;28;20713;-72
2021/11/18 05:34:59;;;;;;;16.58;8.77;;;7.70;99.90;;;;;;4972654;28;20284;-71
2021/11/18 05:37:26;;;;;;;21.63;9.35;;;7.70;99.90;;;;;;4972022;28;20209;-71
2021/11/18 05:39:53;;;;;;;17.42;9.40;;;7.70;99.90;;;;;;4971072;28;20650;-71
2021/11/18 05:42:20;;;;;;;19.80;8.63;;;7.70;99.90;;;;;;4972007;28;20228;-72
2021/11/18 05:44:48;;;;;;;19.02;8.38;;;7.70;99.90;;;;;;4972866;28;20318;-71
2021/11/18 05:47:15;;;;;;;19.20;9.50;;;7.80;99.90;;;;;;4972194;28;20628;-72
2021/11/18 05:49:42;;;;;;;18.45;9.40;;;7.70;99.90;;;;;;4971529;28;20287;-72
2021/11/18 05:52:10;;;;;;;20.25;8.60;;;7.80;99.90;;;;;;4964707;28;20236;-72
2021/11/18 05:54:37;;;;;;;19.90;9.82;;;7.80;99.90;;;;;;4972156;28;20227;-73
2021/11/18 05:57:04;;;;;;;14.38;8.70;;;7.70;99.90;;;;;;4971994;28;20235;-72
2021/11/18 05:59:31;;;;;;;15.73;8.57;;;7.80;99.90;;;;;;4971972;28;20215;-71
2021/11/18 06:01:59;;;;;;;23.17;9.57;;;7.80;99.90;;;;;;4985660;28;20236;-72
2021/11/18 06:04:26;;;;;;;12.98;7.57;;;7.80;99.90;;;;;;4990865;28;20306;-73
2021/11/18 06:06:52;;;;;;;17.17;9.35;;;7.80;99.90;;;;;;4990891;28;20196;-71
2021/11/18 06:09:21;;;;;;;21.30;8.68;;;7.80;99.90;;;;;;4991318;28;20612;-71
2021/11/18 06:11:47;;;;;;;11.00;8.48;;;7.80;99.90;;;;;;4990721;28;20599;-71
2021/11/18 06:14:15;;;;;;;20.45;9.10;;;7.80;99.90;;;;;;4991283;28;20204;-72
2021/11/18 06:16:42;;;;;;;14.93;8.05;;;7.80;99.90;;;;;;4990945;28;20641;-73
2021/11/18 06:19:09;;;;;;;21.85;10.18;;;7.80;99.90;;;;;;4990834;28;20216;-72
2021/11/18 06:21:39;;;;;;;18.77;9.13;;;7.80;99.90;;;;;;4991226;28;20227;-74
2021/11/18 06:24:07;;;;;;;26.45;9.70;;;7.80;99.90;;;;;;4991456;28;20628;-71
2021/11/18 06:26:35;;;;;;;11.85;8.13;;;7.80;99.90;;;;;;4990838;28;20199;-71
2021/11/18 06:29:02;;;;;;;13.93;8.98;;;7.80;99.90;;;;;;4988607;28;20204;-70
2021/11/18 06:31:28;;;;;;;13.15;9.73;;;7.70;99.90;;;;;;4988742;28;20621;-71
2021/11/18 06:33:55;;;;;;;17.25;9.73;;;7.70;99.90;;;;;;4990757;28;20549;-71
2021/11/18 06:36:22;;;;;;;26.15;9.85;;;7.70;99.90;;;;;;4990222;28;20231;-73
2021/11/18 06:38:51;;;;;;;20.00;10.13;;;7.70;99.90;;;;;;4990407;28;20207;-71
2021/11/18 06:41:19;;;;;;;24.23;10.90;;;7.70;99.90;;;;;;4990715;28;20224;-71
2021/11/18 06:43:48;;;;;;;16.38;9.90;;;7.70;99.90;;;;;;4990527;28;20200;-71
2021/11/18 06:46:16;;;;;;;21.00;10.85;;;7.80;99.90;;;;;;4990927;28;20290;-72
2021/11/18 06:48:43;;;;;;;15.70;10.30;;;7.80;99.90;;;;;;4990462;28;20200;-71
2021/11/18 06:51:13;;;;;;;20.05;11.38;;;7.80;99.90;;;;;;4991159;28;20224;-71
2021/11/18 06:53:42;;;;;;;23.92;12.05;;;7.80;99.90;;;;;;4990418;28;20200;-71
2021/11/18 06:56:10;;;;;;;22.60;10.13;;;7.80;99.90;;;;;;4990870;28;20262;-71
2021/11/18 06:58:37;;;;;;;24.80;11.13;;;7.80;99.90;;;;;;4990388;28;20299;-72
2021/11/18 07:01:05;;;;;;;17.88;9.05;;;7.80;99.90;;;;;;4990189;28;20239;-71
2021/11/18 07:03:33;;;;;;;22.35;11.13;;;7.90;99.90;;;;;;4990445;28;20661;-71
2021/11/18 07:06:00;;;;;;;19.05;10.98;;;7.90;99.90;;;;;;4990883;28;20292;-71
2021/11/18 07:08:27;;;;;;;20.95;11.82;;;7.90;99.90;;;;;;4989809;28;20242;-72
2021/11/18 07:10:54;;;;;;;21.52;10.93;;;8.00;99.90;;;;;;4990121;28;20231;-70
2021/11/18 07:13:23;;;;;;;20.90;11.02;;;8.00;99.90;;;;;;4990231;28;20219;-70
2021/11/18 07:15:51;;;;;;;21.23;10.35;;;8.00;99.90;;;;;;4990875;28;20246;-72
2021/11/18 07:18:19;;;;;;;18.83;9.68;;;8.00;99.90;;;;;;4989293;28;20326;-75
2021/11/18 07:20:46;;;;;;;12.88;9.52;;;8.00;99.90;;;;;;4990259;28;20275;-72
2021/11/18 07:23:14;;;;;;;21.67;11.20;;;8.00;99.90;;;;;;4990404;28;20208;-73
2021/11/18 07:25:41;;;;;;;28.17;12.45;;;8.10;99.90;;;;;;4990417;28;20250;-71
2021/11/18 07:28:08;;;;;;;28.38;11.55;;;8.10;99.90;;;;;;4990367;28;20286;-71
2021/11/18 07:30:35;;;;;;;18.10;10.77;;;8.10;99.90;;;;;;4990141;28;20231;-71
2021/11/18 07:33:02;;;;;;;23.50;11.32;;;8.10;99.90;;;;;;4990598;28;20278;-73
2021/11/18 07:35:31;;;;;;;26.17;10.48;;;8.10;99.90;;;;;;4990851;28;20575;-72
2021/11/18 07:37:58;;;;;;;25.95;11.75;;;8.10;99.90;;;;;;4989901;28;20215;-72
2021/11/18 07:40:26;;;;;;;25.70;12.05;;;8.20;99.90;;;;;;4990336;28;20239;-70
2021/11/18 07:42:53;;;;;;;16.05;10.43;;;8.20;99.90;;;;;;4990316;28;20208;-71
2021/11/18 07:45:22;;;;;;;19.60;10.88;;;8.20;99.90;;;;;;4990433;28;20275;-72
2021/11/18 07:47:49;;;;;;;19.27;11.23;;;8.20;99.90;;;;;;4990503;28;20204;-71
2021/11/18 07:50:17;;;;;;;23.88;12.13;;;8.30;99.90;;;;;;4991984;28;20905;-71
2021/11/18 07:52:45;;;;;;;18.13;11.80;;;8.40;99.90;;;;;;4990150;28;20207;-71
2021/11/18 07:55:16;;;;;;;27.27;11.63;;;8.40;99.90;;;;;;4990823;28;20204;-73
2021/11/18 07:57:42;;;;;;;31.45;19.80;;;8.40;99.90;;;;;;4994187;28;20230;-71
2021/11/18 08:00:12;;;;;;;14.65;12.07;;;8.40;99.90;;;;;;4993704;28;20691;-71
2021/11/18 08:02:40;;;;;;;22.75;10.48;;;8.50;99.90;;;;;;4993837;28;20226;-71
2021/11/18 08:05:08;;;;;;;24.20;11.13;;;8.50;99.90;;;;;;4993429;28;20229;-71
2021/11/18 08:07:35;;;;;;;21.10;9.60;;;8.50;99.90;;;;;;4993938;28;20227;-71
2021/11/18 08:10:04;;;;;;;21.05;11.60;;;8.50;99.90;;;;;;4997021;28;20258;-70
2021/11/18 08:12:33;;;;;;;23.17;11.52;;;8.60;99.90;;;;;;4992766;28;20227;-71
2021/11/18 08:15:00;;;;;;;13.27;9.32;;;8.60;99.90;;;;;;4990636;28;20243;-70
2021/11/18 08:17:27;;;;;;;18.77;9.35;;;8.60;99.90;;;;;;4991775;28;20730;-70
2021/11/18 08:19:54;;;;;;;13.10;9.90;;;8.60;99.90;;;;;;4981817;28;20274;-70
2021/11/18 08:22:20;;;;;;;24.20;10.63;;;8.60;99.90;;;;;;4991229;28;20603;-70
2021/11/18 08:24:47;;;;;;;17.60;9.20;;;8.70;99.90;;;;;;4992776;28;20204;-71
2021/11/18 08:27:15;;;;;;;26.38;11.07;;;8.70;99.90;;;;;;4992269;28;20258;-70
2021/11/18 08:29:43;;;;;;;21.38;10.27;;;8.70;99.90;;;;;;4992079;28;20211;-69
2021/11/18 08:32:10;;;;;;;15.82;9.60;;;8.70;99.90;;;;;;4988824;28;20224;-70
2021/11/18 08:34:37;;;;;;;15.60;10.38;;;8.80;99.90;;;;;;4988693;28;20266;-73
2021/11/18 08:37:05;;;;;;;15.93;9.90;;;8.80;99.90;;;;;;4992276;28;20215;-71
2021/11/18 08:39:32;;;;;;;14.05;9.63;;;8.80;99.90;;;;;;4991991;28;20204;-72
2021/11/18 08:42:01;;;;;;;27.20;10.35;;;8.80;99.90;;;;;;4990508;28;20231;-71
2021/11/18 08:44:31;;;;;;;19.63;10.10;;;8.90;99.90;;;;;;4991023;28;20204;-72
2021/11/18 08:46:58;;;;;;;16.08;9.65;;;8.90;99.90;;;;;;4984392;28;20652;-72
2021/11/18 08:49:26;;;;;;;23.40;10.23;;;8.90;99.90;;;;;;4984860;28;20207;-72
2021/11/18 08:51:54;;;;;;;24.55;9.77;;;8.90;99.90;;;;;;4989815;28;20215;-71
2021/11/18 08:54:23;;;;;;;15.75;9.05;;;8.90;99.90;;;;;;4985054;28;20258;-70
2021/11/18 08:56:52;;;;;;;16.05;10.27;;;8.90;99.90;;;;;;4991716;28;20224;-73
2021/11/18 08:59:19;;;;;;;20.10;9.50;;;9.00;99.90;;;;;;4991723;28;20570;-72
2021/11/18 09:01:51;;;;;;;19.02;9.68;;;9.00;99.90;;;;;;4990729;28;20231;-73
2021/11/18 09:04:22;;;;;;;14.13;8.95;;;9.00;99.90;;;;;;4992074;28;20208;-70
2021/11/18 09:06:49;;;;;;;15.50;9.82;;;9.00;99.90;;;;;;4991156;28;20204;-72
2021/11/18 09:09:18;;;;;;;19.35;9.90;;;9.10;99.90;;;;;;4991740;28;20215;-72
2021/11/18 09:11:47;;;;;;;18.02;9.77;;;9.10;99.90;;;;;;4977921;28;20259;-73
2021/11/18 09:14:16;;;;;;;16.73;10.38;;;9.20;99.90;;;;;;4987773;28;20682;-70
2021/11/18 09:16:44;;;;;;;15.38;9.88;;;9.20;99.90;;;;;;4991895;28;20219;-71
2021/11/18 09:19:15;;;;;;;12.88;9.30;;;9.30;99.90;;;;;;4990565;28;20200;-71
2021/11/18 09:21:44;;;;;;;25.42;9.77;;;9.40;99.90;;;;;;4984224;28;20782;-71
2021/11/18 09:24:14;;;;;;;19.20;9.68;;;9.40;99.90;;;;;;4991099;28;20665;-72
2021/11/18 09:26:45;;;;;;;16.63;9.18;;;9.40;99.90;;;;;;4977661;28;20251;-71
2021/11/18 09:29:12;;;;;;;20.80;9.27;;;9.50;99.90;;;;;;4991823;28;20905;-71
2021/11/18 09:31:39;;;;;;;20.42;9.38;;;9.60;99.90;;;;;;4991133;28;20227;-72
2021/11/18 09:34:06;;;;;;;14.77;8.55;;;9.70;99.90;;;;;;4991524;28;20210;-71
2021/11/18 09:36:34;;;;;;;17.65;8.90;;;9.70;99.90;;;;;;4990342;28;20232;-72
2021/11/18 09:39:02;;;;;;;22.27;9.90;;;9.80;99.90;;;;;;4990758;28;20276;-71
2021/11/18 09:41:53;;;;;;;12.23;8.30;;;9.80;99.90;;;;;;4991619;28;20398;-71
2021/11/18 09:44:51;;;;;;;23.23;10.10;;;9.80;99.90;;;;;;4989767;28;20212;-71
2021/11/18 09:48:12;;;;;;;15.13;9.40;;;9.80;99.90;;;;;;4989119;28;20575;-72
2021/11/18 09:50:46;;;;;;;16.27;9.07;;;9.80;99.90;;;;;;4990823;28;20224;-72
2021/11/18 09:53:23;;;;;;;13.65;9.25;;;9.80;99.90;;;;;;4987502;28;20219;-72
2021/11/18 09:55:57;;;;;;;23.85;8.63;;;9.90;99.90;;;;;;4991776;28;20227;-71
2021/11/18 09:58:32;;;;;;;22.33;9.30;;;9.90;99.90;;;;;;4991389;28;20224;-72
2021/11/18 10:01:22;;;;;;;15.50;9.15;;;9.90;99.90;;;;;;4990956;28;20567;-72
2021/11/18 10:03:54;;;;;;;10.68;8.55;;;10.00;99.90;;;;;;4990547;28;20211;-72
2021/11/18 10:06:25;;;;;;;15.75;8.07;;;10.00;99.90;;;;;;4990800;28;20216;-71
2021/11/18 10:09:05;;;;;;;18.25;8.00;;;10.00;99.90;;;;;;4985969;28;20584;-71
2021/11/18 10:11:49;;;;;;;18.15;8.50;;;10.00;99.90;;;;;;4991931;28;20708;-71
2021/11/18 10:14:49;;;;;;;12.48;8.25;;;10.00;99.90;;;;;;4990501;28;20258;-72
2021/11/18 10:17:21;;;;;;;13.82;8.15;;;10.10;99.90;;;;;;4990565;28;20274;-71
2021/11/18 10:19:50;;;;;;;16.70;8.95;;;10.10;99.90;;;;;;4990956;28;20212;-71
2021/11/18 10:22:18;;;;;;;16.40;8.82;;;10.10;99.90;;;;;;4987287;28;20265;-71
2021/11/18 10:24:48;;;;;;;18.48;8.32;;;10.10;99.90;;;;;;4990007;28;20199;-72
2021/11/18 10:27:19;;;;;;;22.10;8.85;;;10.10;99.90;;;;;;4991623;28;20211;-72
2021/11/18 10:30:08;;;;;;;17.92;8.85;;;10.10;99.90;;;;;;4990572;28;20602;-71
2021/11/18 10:32:48;;;;;;;14.43;8.20;;;10.10;99.90;;;;;;4990113;28;20237;-72
2021/11/18 10:35:18;;;;;;;18.20;9.40;;;10.10;99.90;;;;;;4990140;28;20551;-72
2021/11/18 10:37:48;;;;;;;12.60;7.35;;;10.10;99.90;;;;;;4989858;28;20294;-72
2021/11/18 10:40:20;;;;;;;15.15;7.47;;;10.20;99.90;;;;;;4988111;28;20234;-72
2021/11/18 10:42:50;;;;;;;16.70;9.15;;;10.20;99.90;;;;;;4989873;28;20755;-72
2021/11/18 10:45:35;;;;;;;13.02;7.50;;;10.20;99.90;;;;;;4991309;28;20211;-72
2021/11/18 10:48:05;;;;;;;28.95;9.10;;;10.30;99.90;;;;;;4989817;28;20200;-72
2021/11/18 10:50:36;;;;;;;16.08;8.00;;;10.40;99.90;;;;;;4990647;28;20576;-72
2021/11/18 10:53:12;;;;;;;15.25;7.75;;;10.40;99.90;;;;;;4990401;28;20597;-73
2021/11/18 10:55:43;;;;;;;23.13;7.50;;;10.50;99.90;;;;;;4988468;28;20200;-70
2021/11/18 10:58:14;;;;;;;14.80;8.25;;;10.50;99.90;;;;;;4986476;28;20223;-70
2021/11/18 11:00:45;;;;;;;20.17;8.43;;;10.50;99.90;;;;;;4988652;28;20271;-69
2021/11/18 11:03:25;;;;;;;14.73;7.38;;;10.60;99.90;;;;;;4990668;28;20212;-69
2021/11/18 11:06:09;;;;;;;13.50;7.75;;;10.60;99.90;;;;;;4990223;28;20283;-69
2021/11/18 11:08:37;;;;;;;14.75;6.80;;;10.50;99.90;;;;;;4989888;28;20577;-69
2021/11/18 11:11:12;;;;;;;14.25;6.97;;;10.50;99.90;;;;;;4987534;28;20310;-72
2021/11/18 11:14:09;;;;;;;10.45;6.75;;;10.50;99.90;;;;;;4980972;28;20588;-73
2021/11/18 11:16:58;;;;;;;13.20;7.13;;;10.50;99.90;;;;;;4985864;28;20215;-72
2021/11/18 11:19:35;;;;;;;15.55;6.65;;;10.60;99.90;;;;;;4989034;28;20572;-72
2021/11/18 11:22:06;;;;;;;13.65;8.00;;;10.60;99.90;;;;;;4988334;28;20318;-72
2021/11/18 11:25:09;;;;;;;17.23;6.70;;;10.70;99.90;;;;;;4990877;28;20645;-73
2021/11/18 11:28:15;;;;;;;15.30;7.05;;;10.70;99.90;;;;;;4987122;28;20204;-72
2021/11/18 11:30:46;;;;;;;13.18;6.65;;;10.70;99.90;;;;;;4993960;28;20282;-72
2021/11/18 11:33:20;;;;;;;12.02;6.53;;;10.80;99.90;;;;;;4992630;28;20620;-70
2021/11/18 11:35:52;;;;;;;13.80;6.68;;;10.80;99.90;;;;;;4987140;28;20210;-71
2021/11/18 11:38:42;;;;;;;18.42;7.10;;;10.80;99.90;;;;;;4991545;28;20238;-71
2021/11/18 11:41:40;;;;;;;14.52;7.90;;;10.80;99.90;;;;;;4990867;28;20229;-71
2021/11/18 11:44:15;;;;;;;14.27;6.43;;;10.80;99.90;;;;;;4990186;28;20653;-71
2021/11/18 11:46:52;;;;;;;10.88;6.90;;;10.90;99.90;;;;;;4986401;28;20195;-73
2021/11/18 11:49:34;;;;;;;14.73;5.90;;;10.80;99.90;;;;;;4992799;28;20684;-72
2021/11/18 11:52:46;;;;;;;26.40;7.93;;;10.90;99.90;;;;;;4993049;28;20235;-71
2021/11/18 11:55:37;;;;;;;14.23;7.97;;;10.90;99.90;;;;;;4989606;28;20295;-74
2021/11/18 11:58:09;;;;;;;9.05;6.57;;;11.00;99.90;;;;;;4992911;28;20251;-72
2021/11/18 12:00:50;;;;;;;13.18;6.45;;;11.00;99.90;;;;;;4993290;28;20240;-72
2021/11/18 12:03:38;;;;;;;12.05;8.60;;;11.00;99.90;;;;;;4992806;28;20226;-72
2021/11/18 12:06:12;;;;;;;18.08;8.00;;;11.00;99.90;;;;;;4993157;28;20210;-72
2021/11/18 12:08:46;;;;;;;14.65;7.65;;;11.00;99.90;;;;;;4985509;28;20207;-72
2021/11/18 12:11:15;;;;;;;9.70;6.22;;;10.90;99.90;;;;;;4993534;28;20315;-71
2021/11/18 12:13:48;;;;;;;11.07;6.15;;;11.00;99.90;;;;;;4993761;28;20211;-71
2021/11/18 12:16:24;;;;;;;12.45;6.47;;;11.00;99.90;;;;;;4992477;28;20211;-72
2021/11/18 12:18:55;;;;;;;15.05;7.20;;;10.90;99.90;;;;;;4988992;28;20223;-72
2021/11/18 12:21:23;;;;;;;13.10;6.55;;;10.90;99.90;;;;;;4993308;28;20236;-72
2021/11/18 12:24:03;;;;;;;13.23;6.95;;;10.90;99.90;;;;;;4992187;28;20216;-71
2021/11/18 12:26:42;;;;;;;15.75;7.30;;;10.80;99.90;;;;;;4993617;28;20294;-71
2021/11/18 12:29:28;;;;;;;11.60;7.35;;;10.80;99.90;;;;;;4973351;28;20204;-72
2021/11/18 12:32:31;;;;;;;12.90;6.57;;;10.80;99.90;;;;;;4983707;28;20231;-72
2021/11/18 12:35:16;;;;;;;17.67;7.20;;;10.80;99.90;;;;;;4983008;28;20211;-72
2021/11/18 12:38:09;;;;;;;10.70;7.32;;;10.90;99.90;;;;;;4986890;28;20274;-74
2021/11/18 12:41:01;;;;;;;11.10;6.30;;;10.80;99.90;;;;;;4992722;28;20231;-72
2021/11/18 12:44:02;;;;;;;16.13;6.97;;;10.70;99.90;;;;;;4991516;28;20216;-73
2021/11/18 12:46:33;;;;;;;10.05;6.45;;;10.70;99.90;;;;;;4992317;28;20207;-71
2021/11/18 12:49:20;;;;;;;13.55;6.90;;;10.70;99.90;;;;;;4992327;28;20672;-71
2021/11/18 12:52:19;;;;;;;13.50;7.50;;;10.60;99.90;;;;;;4998219;28;20734;-71
2021/11/18 12:55:03;;;;;;;12.18;6.35;;;10.60;99.90;;;;;;4991601;28;20211;-71
2021/11/18 12:57:33;;;;;;;12.23;6.57;;;10.60;99.90;;;;;;4991099;28;20223;-71
2021/11/18 13:00:08;;;;;;;9.50;5.93;;;10.60;99.90;;;;;;4992166;28;20204;-71
2021/11/18 13:02:55;;;;;;;10.77;6.28;;;10.60;99.90;;;;;;4992636;28;20322;-70
2021/11/18 13:05:47;;;;;;;7.25;5.97;;;10.70;99.90;;;;;;4994049;28;20223;-70
2021/11/18 13:08:48;;;;;;;8.50;5.45;;;10.70;99.90;;;;;;4993581;28;20215;-70
2021/11/18 13:11:47;;;;;;;14.02;5.93;;;10.70;99.90;;;;;;4990564;28;20239;-72
2021/11/18 13:14:21;;;;;;;10.43;5.78;;;10.80;99.90;;;;;;4991095;28;20211;-70
2021/11/18 13:17:08;;;;;;;10.60;5.15;;;10.80;99.90;;;;;;4992647;28;20215;-71
2021/11/18 13:20:05;;;;;;;10.10;5.72;;;10.80;99.90;;;;;;4990423;28;20203;-70
2021/11/18 13:22:36;;;;;;;10.30;5.47;;;10.80;99.90;;;;;;4992098;28;20228;-72
2021/11/18 13:25:11;;;;;;;12.98;4.75;;;10.80;99.90;;;;;;4991900;28;20219;-70
2021/11/18 13:27:43;;;;;;;12.30;5.70;;;10.80;99.90;;;;;;4982877;28;20543;-69
2021/11/18 13:30:24;;;;;;;10.98;6.00;;;10.80;99.90;;;;;;4991799;28;20281;-71
2021/11/18 13:32:54;;;;;;;11.18;5.93;;;10.80;99.90;;;;;;4992013;28;20262;-70
2021/11/18 13:35:24;;;;;;;12.98;6.03;;;10.80;99.90;;;;;;4991581;28;20538;-70
2021/11/18 13:38:07;;;;;;;13.98;6.15;;;10.70;99.90;;;;;;4991203;28;20228;-69
2021/11/18 13:40:36;;;;;;;17.45;6.75;;;10.70;99.90;;;;;;4993281;28;20246;-71
2021/11/18 13:43:13;;;;;;;5.97;4.80;;;10.70;99.90;;;;;;4993138;28;20208;-72
2021/11/18 13:45:55;;;;;;;11.48;5.53;;;10.70;99.90;;;;;;4992389;28;20208;-72
2021/11/18 13:48:23;;;;;;;11.05;6.50;;;10.70;99.90;;;;;;4991440;28;20215;-71
2021/11/18 13:50:55;;;;;;;6.40;5.40;;;10.70;99.90;;;;;;4992419;28;20231;-71
2021/11/18 13:53:26;;;;;;;14.20;6.20;;;10.60;99.90;;;;;;4992066;28;20200;-70
2021/11/18 13:55:55;;;;;;;13.95;6.80;;;10.60;99.90;;;;;;4991855;28;20558;-71
2021/11/18 13:58:26;;;;;;;14.82;7.10;;;10.60;99.90;;;;;;4991686;28;20323;-69
2021/11/18 14:00:57;;;;;;;12.73;5.80;;;10.60;99.90;;;;;;4991589;28;20269;-70
2021/11/18 14:03:27;;;;;;;9.98;5.75;;;10.60;99.90;;;;;;4991581;28;20759;-72
2021/11/18 14:05:56;;;;;;;13.30;6.50;;;10.50;99.90;;;;;;4992068;28;20566;-72
2021/11/18 14:08:26;;;;;;;15.05;6.80;;;10.50;99.90;;;;;;4985820;28;20204;-72
2021/11/18 14:10:57;;;;;;;11.07;6.93;;;10.60;99.90;;;;;;4991888;28;20246;-71
2021/11/18 14:13:36;;;;;;;11.43;5.75;;;10.50;99.90;;;;;;4991162;28;20616;-71
2021/11/18 14:16:06;;;;;;;7.13;5.70;;;10.50;99.90;;;;;;4990912;28;20204;-72
2021/11/18 14:18:36;;;;;;;11.30;6.72;;;10.50;99.90;;;;;;4990678;28;20223;-72
2021/11/18 14:21:12;;;;;;;11.45;5.85;;;10.50;99.90;;;;;;4991367;28;20561;-72
2021/11/18 14:23:58;;;;;;;10.15;6.38;;;10.50;99.90;;;;;;4990939;28;20211;-72
2021/11/18 14:26:32;;;;;;;16.40;8.13;;;10.40;99.90;;;;;;4990877;28;20203;-72
2021/11/18 14:29:26;;;;;;;10.13;6.03;;;10.40;99.90;;;;;;4990354;28;20195;-72
2021/11/18 14:32:01;;;;;;;13.93;5.80;;;10.40;99.90;;;;;;4988255;28;20250;-72
2021/11/18 14:34:35;;;;;;;11.93;6.30;;;10.40;99.90;;;;;;4990251;28;20302;-72
2021/11/18 14:37:24;;;;;;;10.13;5.90;;;10.40;99.90;;;;;;4990019;28;20203;-71
2021/11/18 14:39:54;;;;;;;15.35;6.28;;;10.40;99.90;;;;;;4971136;28;20704;-72
2021/11/18 14:42:24;;;;;;;11.02;6.03;;;10.40;99.90;;;;;;4986091;28;20240;-72
2021/11/18 14:45:18;;;;;;;12.95;5.90;;;10.40;99.90;;;;;;4990634;28;20565;-71
2021/11/18 14:47:48;;;;;;;12.20;6.30;;;10.30;99.90;;;;;;4990091;28;20208;-72
2021/11/18 14:50:18;;;;;;;15.90;6.10;;;10.30;99.90;;;;;;4989782;28;20781;-71
2021/11/18 14:52:48;;;;;;;12.52;5.80;;;10.30;99.90;;;;;;4990448;28;20215;-70
2021/11/18 14:55:27;;;;;;;18.75;8.48;;;10.30;99.90;;;;;;4988721;28;20215;-72
2021/11/18 14:57:58;;;;;;;8.13;4.97;;;10.30;99.90;;;;;;4990364;28;20204;-72
2021/11/18 15:00:28;;;;;;;13.82;5.97;;;10.20;99.90;;;;;;4992330;28;20218;-72
2021/11/18 15:02:56;;;;;;;15.93;5.65;;;10.20;99.90;;;;;;4994869;28;20207;-72
2021/11/18 15:05:22;;;;;;;10.32;6.03;;;10.20;99.90;;;;;;4993470;28;20204;-70
2021/11/18 15:07:49;;;;;;;12.75;6.82;;;10.20;99.90;;;;;;4994101;28;20282;-71
2021/11/18 15:10:16;;;;;;;11.23;6.03;;;10.20;99.90;;;;;;4993509;28;20200;-72
2021/11/18 15:12:47;;;;;;;12.15;7.90;;;10.20;99.90;;;;;;4994175;28;20747;-72
2021/11/18 15:15:18;;;;;;;11.23;6.20;;;10.20;99.90;;;;;;4994236;28;20220;-72
2021/11/18 15:17:49;;;;;;;7.85;5.63;;;10.20;99.90;;;;;;4993703;28;20212;-72
2021/11/18 15:20:16;;;;;;;11.57;6.95;;;10.10;99.90;;;;;;5002718;28;20219;-72
2021/11/18 15:22:42;;;;;;;12.80;7.13;;;10.10;99.90;;;;;;4996394;28;20214;-72
2021/11/18 15:25:12;;;;;;;15.57;7.95;;;10.10;99.90;;;;;;4997564;28;20204;-72
2021/11/18 15:27:42;;;;;;;19.25;9.00;;;10.10;99.90;;;;;;4988038;28;20203;-72
2021/11/18 15:30:13;;;;;;;15.85;7.68;;;10.10;99.90;;;;;;4991964;28;20196;-73
2021/11/18 15:32:40;;;;;;;18.20;7.35;;;10.10;99.90;;;;;;4988195;28;20274;-72
2021/11/18 15:35:11;;;;;;;13.07;7.75;;;10.10;99.90;;;;;;4991776;28;20914;-72
2021/11/18 15:37:40;;;;;;;16.92;8.40;;;10.10;99.90;;;;;;4990260;28;20645;-72
2021/11/18 15:40:09;;;;;;;13.15;7.50;;;10.10;99.90;;;;;;4993360;28;20712;-73
2021/11/18 15:42:36;;;;;;;9.45;8.65;;;10.10;99.90;;;;;;4993404;28;20224;-72
2021/11/18 15:45:05;;;;;;;15.32;10.25;;;10.10;99.90;;;;;;4992310;28;20206;-73
2021/11/18 15:47:33;;;;;;;19.75;9.48;;;10.10;99.90;;;;;;4990763;28;20215;-70
2021/11/18 15:50:04;;;;;;;12.45;8.30;;;10.10;99.90;;;;;;4992927;28;20215;-73
2021/11/18 15:52:31;;;;;;;18.65;8.95;;;10.10;99.90;;;;;;4992736;28;20244;-73
2021/11/18 15:54:58;;;;;;;12.63;7.78;;;10.10;99.90;;;;;;4993542;28;20597;-72
2021/11/18 15:57:26;;;;;;;13.85;8.27;;;10.10;99.90;;;;;;4992556;28;20207;-73
2021/11/18 15:59:53;;;;;;;13.38;8.23;;;10.10;99.90;;;;;;4992891;28;20220;-72
2021/11/18 16:02:23;;;;;;;14.25;9.40;;;10.10;99.90;;;;;;4992741;28;20235;-72
2021/11/18 16:04:51;;;;;;;13.80;9.52;;;10.10;99.90;;;;;;4992966;28;20238;-72
2021/11/18 16:07:20;;;;;;;12.68;9.70;;;10.10;99.90;;;;;;4992588;28;20266;-71
2021/11/18 16:09:48;;;;;;;17.05;9.77;;;10.10;99.90;;;;;;4980838;28;20204;-72
2021/11/18 16:12:18;;;;;;;15.10;10.23;;;10.10;99.90;;;;;;4991998;28;20315;-72
2021/11/18 16:14:48;;;;;;;22.50;9.95;;;10.10;99.90;;;;;;4992769;28;20622;-71
2021/11/18 16:17:17;;;;;;;22.90;10.68;;;10.10;99.90;;;;;;4993294;28;20210;-71
2021/11/18 16:19:45;;;;;;;21.00;10.48;;;10.10;99.90;;;;;;4992972;28;20236;-73
2021/11/18 16:22:18;;;;;;;19.48;10.75;;;10.10;99.90;;;;;;4985346;28;20231;-72
2021/11/18 16:24:44;;;;;;;13.02;11.70;;;10.10;99.90;;;;;;4992060;28;20212;-73
2021/11/18 16:27:11;;;;;;;18.02;10.48;;;10.10;99.90;;;;;;4990585;28;20211;-73
2021/11/18 16:29:40;;;;;;;19.88;11.25;;;10.10;99.90;;;;;;4992994;28;20204;-73
2021/11/18 16:32:09;;;;;;;25.23;11.93;;;10.10;99.90;;;;;;4993153;28;20224;-72
2021/11/18 16:34:36;;;;;;;16.13;10.88;;;10.10;99.90;;;;;;4992469;28;20661;-72
2021/11/18 16:37:07;;;;;;;16.58;12.60;;;10.20;99.90;;;;;;4993103;28;20565;-74
2021/11/18 16:39:37;;;;;;;13.38;11.10;;;10.20;99.90;;;;;;4992710;28;20220;-73
2021/11/18 16:42:08;;;;;;;24.77;12.00;;;10.20;99.90;;;;;;4992556;28;20629;-73
2021/11/18 16:44:37;;;;;;;16.42;12.20;;;10.20;99.90;;;;;;4993326;28;20208;-73
2021/11/18 16:47:06;;;;;;;17.90;11.60;;;10.20;99.90;;;;;;4992484;28;20580;-73
2021/11/18 16:49:34;;;;;;;20.10;12.82;;;10.20;99.90;;;;;;4992020;28;20200;-73
2021/11/18 16:52:05;;;;;;;16.75;12.05;;;10.20;99.90;;;;;;4992998;28;20263;-73
2021/11/18 16:54:31;;;;;;;16.15;13.38;;;10.20;99.90;;;;;;4993001;28;20204;-73
2021/11/18 16:56:59;;;;;;;23.75;13.05;;;10.20;99.90;;;;;;4990708;28;20612;-73
2021/11/18 16:59:26;;;;;;;17.75;12.13;;;10.20;99.90;;;;;;4990426;28;20278;-72
2021/11/18 17:01:55;;;;;;;21.08;17.77;;;10.20;99.90;;;;;;4992391;28;20250;-73
2021/11/18 17:04:23;;;;;;;19.42;14.43;;;10.20;99.90;;;;;;4992365;28;20212;-73
2021/11/18 17:06:52;;;;;;;22.00;13.45;;;10.20;99.90;;;;;;4991375;28;20203;-73
2021/11/18 17:09:19;;;;;;;19.17;12.43;;;10.10;99.90;;;;;;4992412;28;20203;-73
2021/11/18 17:11:48;;;;;;;19.58;13.13;;;10.10;99.90;;;;;;4992265;28;20290;-73
2021/11/18 17:14:17;;;;;;;18.38;13.75;;;10.10;99.90;;;;;;4993414;28;20208;-73
2021/11/18 17:16:49;;;;;;;22.60;13.70;;;10.10;99.90;;;;;;4992943;28;20240;-75
2021/11/18 17:19:17;;;;;;;21.08;15.30;;;10.10;99.90;;;;;;4991692;28;20282;-73
2021/11/18 17:21:46;;;;;;;19.27;13.80;;;10.10;99.90;;;;;;4990948;28;20239;-73
2021/11/18 17:24:15;;;;;;;18.42;14.98;;;10.10;99.90;;;;;;4991374;28;20568;-73
2021/11/18 17:26:43;;;;;;;20.42;15.88;;;10.10;99.90;;;;;;4991822;28;20219;-73
2021/11/18 17:29:14;;;;;;;22.45;17.05;;;10.10;99.90;;;;;;4990987;28;20211;-72
2021/11/18 17:31:43;;;;;;;24.77;16.50;;;10.10;99.90;;;;;;4992239;28;20231;-73
2021/11/18 17:34:10;;;;;;;23.08;16.70;;;10.10;99.90;;;;;;4986967;28;20207;-73
2021/11/18 17:36:39;;;;;;;18.67;16.10;;;10.10;99.90;;;;;;4991471;28;20204;-72
2021/11/18 17:39:11;;;;;;;26.13;17.17;;;10.10;99.90;;;;;;4990709;28;20697;-73
2021/11/18 17:41:38;;;;;;;21.90;16.40;;;10.10;99.90;;;;;;4991884;28;20235;-73
2021/11/18 17:44:06;;;;;;;24.52;17.02;;;10.10;99.90;;;;;;4991763;28;20200;-73
2021/11/18 17:46:36;;;;;;;31.45;17.67;;;10.10;99.90;;;;;;4991321;28;20211;-74
2021/11/18 17:49:04;;;;;;;24.35;17.58;;;10.10;99.90;;;;;;4990836;28;20254;-74
2021/11/18 17:51:34;;;;;;;27.17;18.70;;;10.10;99.90;;;;;;4991350;28;20618;-72
2021/11/18 17:54:01;;;;;;;26.48;16.50;;;10.10;99.90;;;;;;4991096;28;20286;-72
2021/11/18 17:56:31;;;;;;;26.33;16.70;;;10.10;99.90;;;;;;4993131;28;20254;-73
2021/11/18 17:58:58;;;;;;;24.15;16.20;;;10.10;99.90;;;;;;4990105;28;20242;-74
2021/11/18 18:01:28;;;;;;;28.27;17.20;;;10.10;99.90;;;;;;5000807;28;20231;-72
2021/11/18 18:03:55;;;;;;;23.70;16.00;;;10.20;99.90;;;;;;4992498;28;20808;-72